Oskaloosa, Iowa
Current Conditions -  °F | °C
As of 11:35 PM on Tuesday 25 Nov 2014 (Local Time) from KOOA Reporting Station
Clear Clear  
Wind Chill: 13°   Ceiling: Unl
Heat Index: 24°   Visibility: 10mi
Dew Point: 21°   Wind: 12mph
Humidity: 88%   Direction: 140°SE
Pressure: 30.07"   Gusts: NA
Location:  41.3°N, 92.64°W
Report Text: KOOA 260535Z AUTO 14010KT 10SM CLR M04/M06 A3007 RMK AO2 T10451062
Loading
Personal Weather Stations






























Interactive Weather Map New forecast layout! Learn more

10-Day Weather Forecast

Advertisements
Track Severe Weather on mobile